Am Express — VRGC7 — position and weather

sailwx.info

Track history (hours):
 
Tides and Currents Weather Stations Pressure Air Temp Water Temp Dewpoint Dewpoint Depression Visibility Wind Speed Wind Dir Waves Ship Positions

Am Express

Last reported at 2017-Nov-04 10:02 UTC. Time now 2017-Dec-14 00:25 UTC.
Position N 36°51' W 075°50'.
Warning: this ship's position is 39 days out of date.

Length 222 m; draft 14.2 m.

Type: Cargo ship. MMSI: 477655300.

Date/timePositionNaut miles runAvg speedWind from/ knotsBaromVisibWave heightAir tempDewpointWater temp
2017-Nov-04 10:02N 36°51' W 075°50'0 7.7
2017-Nov-04 10:00N 36°51' W 075°51'4 8.2
2017-Nov-04 09:30N 36°54' W 075°54'4 8.7
2017-Nov-04 09:00N 36°56' W 075°59'5 9.7
2017-Nov-04 08:30N 36°58' W 076°05'510.0
2017-Nov-04 08:00N 36°60' W 076°11'8 9.4
2017-Nov-04 07:11N 36°58' W 076°20'2 9.0
2017-Nov-04 07:00N 36°57' W 076°22'3 5.3
2017-Nov-04 06:29N 36°58' W 076°26'0 0.2
2017-Nov-04 05:54N 36°58' W 076°25'0 0.0
2017-Nov-04 05:27N 36°58' W 076°25'0 0.0
2017-Nov-04 04:57N 36°58' W 076°25'0 0.0
2017-Nov-04 04:24N 36°58' W 076°25'0 0.0
2017-Nov-04 04:00N 36°58' W 076°25'0 0.0
2017-Nov-04 03:30N 36°58' W 076°25'0 0.0
2017-Nov-04 02:57N 36°58' W 076°25'0 0.0
2017-Nov-04 02:27N 36°58' W 076°25'0 0.0
2017-Nov-04 02:00N 36°58' W 076°25'0 0.0
2017-Nov-04 01:27N 36°58' W 076°25'0 0.0
2017-Nov-04 00:51N 36°58' W 076°25'0 0.0
2017-Nov-04 00:27N 36°58' W 076°25'0 0.0
2017-Nov-03 23:57N 36°58' W 076°25'0 0.0
2017-Nov-03 23:15N 36°58' W 076°25'0 0.0
2017-Nov-03 22:57N 36°58' W 076°25'0 0.0
2017-Nov-03 22:27N 36°58' W 076°25'0 0.0
2017-Nov-03 21:57N 36°58' W 076°25'0 0.0
2017-Nov-03 21:27N 36°58' W 076°25'0 0.0
2017-Nov-03 20:54N 36°58' W 076°25'0 0.0
2017-Nov-03 20:27N 36°58' W 076°25'0 0.0
2017-Nov-03 20:00N 36°58' W 076°25'0 0.0
2017-Nov-03 19:27N 36°58' W 076°25'0 0.0
2017-Nov-03 18:57N 36°58' W 076°25'0 0.0
2017-Nov-03 18:30N 36°58' W 076°25'0 0.0
2017-Nov-03 17:57N 36°58' W 076°25'0 0.0
2017-Nov-03 17:24N 36°58' W 076°25'0 0.0
2017-Nov-03 17:00N 36°58' W 076°25'0 0.0
2017-Nov-03 16:27N 36°58' W 076°25'0 0.0
2017-Nov-03 15:57N 36°58' W 076°25'0 0.0
2017-Nov-03 15:30N 36°58' W 076°25'0 0.0
2017-Nov-03 15:00N 36°58' W 076°25'0 0.0
2017-Nov-03 14:27N 36°58' W 076°25'0 0.0
2017-Nov-03 14:00N 36°58' W 076°25'0 0.0
2017-Nov-03 13:30N 36°58' W 076°25'0 0.0
2017-Nov-03 13:00N 36°58' W 076°25'0 0.0
2017-Nov-03 12:30N 36°58' W 076°25'0 0.0
2017-Nov-03 12:00N 36°58' W 076°25'0 0.0
2017-Nov-03 11:30N 36°58' W 076°25'0 0.0
2017-Nov-03 11:00N 36°58' W 076°25'0 0.0
2017-Nov-03 10:30N 36°58' W 076°25'0 0.0
2017-Nov-03 09:57N 36°58' W 076°25'0 0.0
2017-Nov-03 09:27N 36°58' W 076°25'0 0.0
2017-Nov-03 09:00N 36°58' W 076°25'0 0.0
2017-Nov-03 08:30N 36°58' W 076°25'0 0.0
2017-Nov-03 08:00N 36°58' W 076°25'0 0.0
2017-Nov-03 07:30N 36°58' W 076°25'0 0.0
2017-Nov-03 07:00N 36°58' W 076°25'0 0.0
2017-Nov-03 06:30N 36°58' W 076°25'0 0.0
2017-Nov-03 06:00N 36°58' W 076°25'0 0.0
2017-Nov-03 05:30N 36°58' W 076°25'0 0.0
2017-Nov-03 04:57N 36°58' W 076°25'0 0.0
2017-Nov-03 04:30N 36°58' W 076°25'0 0.0
2017-Nov-03 04:00N 36°58' W 076°25'0 0.0
2017-Nov-03 03:30N 36°58' W 076°25'0 0.0
2017-Nov-03 03:00N 36°58' W 076°25'0 0.0
2017-Nov-03 02:30N 36°58' W 076°25'0 0.0
2017-Nov-03 02:00N 36°58' W 076°25'0 0.0
2017-Nov-03 01:30N 36°58' W 076°25'0 0.0
2017-Nov-03 01:00N 36°58' W 076°25'0 0.0
2017-Nov-03 00:30N 36°58' W 076°25'0 0.0
2017-Nov-03 00:00N 36°58' W 076°25'0 0.0
2017-Nov-02 23:30N 36°58' W 076°25'0 0.0
2017-Nov-02 23:00N 36°58' W 076°25'0 0.0
2017-Nov-02 22:30N 36°58' W 076°25'0 0.0
2017-Nov-02 22:00N 36°58' W 076°25'0 0.0
2017-Nov-02 21:27N 36°58' W 076°25'0 0.0
2017-Nov-02 21:00N 36°58' W 076°25'0 0.0
2017-Nov-02 20:30N 36°58' W 076°25'0 0.0
2017-Nov-02 20:00N 36°58' W 076°25'0 0.0
2017-Nov-02 19:27N 36°58' W 076°25'0 0.0
2017-Nov-02 19:00N 36°58' W 076°25'0 0.0
2017-Nov-02 18:30N 36°58' W 076°25'0 0.0
2017-Nov-02 18:00N 36°58' W 076°25'0 0.0
2017-Nov-02 17:30N 36°58' W 076°25'0 0.0
2017-Nov-02 16:57N 36°58' W 076°25'0 0.0
2017-Nov-02 16:30N 36°58' W 076°25'0 0.0
2017-Nov-02 16:00N 36°58' W 076°25'0 0.0
2017-Nov-02 15:27N 36°58' W 076°25'0 0.0
2017-Nov-02 14:57N 36°58' W 076°25'0 0.0
2017-Nov-02 14:24N 36°58' W 076°25'0 0.0
2017-Nov-02 14:00N 36°58' W 076°25'0 0.0
2017-Nov-02 13:30N 36°58' W 076°25'0 0.0
2017-Nov-02 13:00N 36°58' W 076°25'0 0.0
2017-Nov-02 12:30N 36°58' W 076°25'0 0.0
2017-Nov-02 12:00N 36°58' W 076°25'0 0.0
2017-Nov-02 11:30N 36°58' W 076°25'0 0.0
2017-Nov-02 11:00N 36°58' W 076°25'0 0.0
2017-Nov-02 10:30N 36°58' W 076°25'0 0.1
2017-Nov-02 10:00N 36°58' W 076°25'2 4.9
2017-Nov-02 09:30N 36°57' W 076°22'4 9.0
2017-Nov-02 09:00N 36°60' W 076°18'612.8
2017-Nov-02 08:30N 36°59' W 076°10'612.7
2017-Nov-02 08:00N 36°58' W 076°02'713.4
2017-Nov-02 07:30N 37°04' W 076°06'811.6
2017-Nov-02 06:51N 37°12' W 076°06'1 0.4
2017-Nov-02 04:30N 37°13' W 076°05'0 0.1
2017-Nov-02 04:00N 37°13' W 076°05'0 0.0
2017-Nov-02 03:15N 37°13' W 076°05'0 0.0
2017-Nov-01 22:21N 37°13' W 076°05'0 0.0
2017-Nov-01 22:00N 37°13' W 076°05'0 0.0
2017-Nov-01 21:30N 37°13' W 076°05'0 0.0
2017-Nov-01 21:00N 37°13' W 076°05'0 0.3
2017-Nov-01 20:30N 37°13' W 076°05'0 0.3
2017-Nov-01 20:00N 37°12' W 076°05'0 0.0
2017-Nov-01 19:27N 37°12' W 076°05'0 0.0
2017-Nov-01 19:00N 37°12' W 076°05'0 0.0
2017-Nov-01 18:12N 37°12' W 076°05'0 0.0
2017-Oct-31 14:27N 37°12' W 076°05'  
Track history (hours):
 
Tides and Currents Weather Stations Pressure Air Temp Water Temp Dewpoint Dewpoint Depression Visibility Wind Speed Wind Dir Waves Ship Positions

Am Express

Last reported at 2017-Nov-04 10:02 UTC. Time now 2017-Dec-14 00:25 UTC.
Position N 36°51' W 075°50'.
Warning: this ship's position is 39 days out of date.

Length 222 m; draft 14.2 m.

Type: Cargo ship. MMSI: 477655300.

Date/timePositionNaut miles runAvg speedWind from/ knotsBaromVisibWave heightAir tempDewpointWater temp
2017-Nov-04 10:02N 36°51' W 075°50'0 7.7
2017-Nov-04 10:00N 36°51' W 075°51'4 8.2
2017-Nov-04 09:30N 36°54' W 075°54'4 8.7
2017-Nov-04 09:00N 36°56' W 075°59'5 9.7
2017-Nov-04 08:30N 36°58' W 076°05'510.0
2017-Nov-04 08:00N 36°60' W 076°11'8 9.4
2017-Nov-04 07:11N 36°58' W 076°20'2 9.0
2017-Nov-04 07:00N 36°57' W 076°22'3 5.3
2017-Nov-04 06:29N 36°58' W 076°26'0 0.2
2017-Nov-04 05:54N 36°58' W 076°25'0 0.0
2017-Nov-04 05:27N 36°58' W 076°25'0 0.0
2017-Nov-04 04:57N 36°58' W 076°25'0 0.0
2017-Nov-04 04:24N 36°58' W 076°25'0 0.0
2017-Nov-04 04:00N 36°58' W 076°25'0 0.0
2017-Nov-04 03:30N 36°58' W 076°25'0 0.0
2017-Nov-04 02:57N 36°58' W 076°25'0 0.0
2017-Nov-04 02:27N 36°58' W 076°25'0 0.0
2017-Nov-04 02:00N 36°58' W 076°25'0 0.0
2017-Nov-04 01:27N 36°58' W 076°25'0 0.0
2017-Nov-04 00:51N 36°58' W 076°25'0 0.0
2017-Nov-04 00:27N 36°58' W 076°25'0 0.0
2017-Nov-03 23:57N 36°58' W 076°25'0 0.0
2017-Nov-03 23:15N 36°58' W 076°25'0 0.0
2017-Nov-03 22:57N 36°58' W 076°25'0 0.0
2017-Nov-03 22:27N 36°58' W 076°25'0 0.0
2017-Nov-03 21:57N 36°58' W 076°25'0 0.0
2017-Nov-03 21:27N 36°58' W 076°25'0 0.0
2017-Nov-03 20:54N 36°58' W 076°25'0 0.0
2017-Nov-03 20:27N 36°58' W 076°25'0 0.0
2017-Nov-03 20:00N 36°58' W 076°25'0 0.0
2017-Nov-03 19:27N 36°58' W 076°25'0 0.0
2017-Nov-03 18:57N 36°58' W 076°25'0 0.0
2017-Nov-03 18:30N 36°58' W 076°25'0 0.0
2017-Nov-03 17:57N 36°58' W 076°25'0 0.0
2017-Nov-03 17:24N 36°58' W 076°25'0 0.0
2017-Nov-03 17:00N 36°58' W 076°25'0 0.0
2017-Nov-03 16:27N 36°58' W 076°25'0 0.0
2017-Nov-03 15:57N 36°58' W 076°25'0 0.0
2017-Nov-03 15:30N 36°58' W 076°25'0 0.0
2017-Nov-03 15:00N 36°58' W 076°25'0 0.0
2017-Nov-03 14:27N 36°58' W 076°25'0 0.0
2017-Nov-03 14:00N 36°58' W 076°25'0 0.0
2017-Nov-03 13:30N 36°58' W 076°25'0 0.0
2017-Nov-03 13:00N 36°58' W 076°25'0 0.0
2017-Nov-03 12:30N 36°58' W 076°25'0 0.0
2017-Nov-03 12:00N 36°58' W 076°25'0 0.0
2017-Nov-03 11:30N 36°58' W 076°25'0 0.0
2017-Nov-03 11:00N 36°58' W 076°25'0 0.0
2017-Nov-03 10:30N 36°58' W 076°25'0 0.0
2017-Nov-03 09:57N 36°58' W 076°25'0 0.0
2017-Nov-03 09:27N 36°58' W 076°25'0 0.0
2017-Nov-03 09:00N 36°58' W 076°25'0 0.0
2017-Nov-03 08:30N 36°58' W 076°25'0 0.0
2017-Nov-03 08:00N 36°58' W 076°25'0 0.0
2017-Nov-03 07:30N 36°58' W 076°25'0 0.0
2017-Nov-03 07:00N 36°58' W 076°25'0 0.0
2017-Nov-03 06:30N 36°58' W 076°25'0 0.0
2017-Nov-03 06:00N 36°58' W 076°25'0 0.0
2017-Nov-03 05:30N 36°58' W 076°25'0 0.0
2017-Nov-03 04:57N 36°58' W 076°25'0 0.0
2017-Nov-03 04:30N 36°58' W 076°25'0 0.0
2017-Nov-03 04:00N 36°58' W 076°25'0 0.0
2017-Nov-03 03:30N 36°58' W 076°25'0 0.0
2017-Nov-03 03:00N 36°58' W 076°25'0 0.0
2017-Nov-03 02:30N 36°58' W 076°25'0 0.0
2017-Nov-03 02:00N 36°58' W 076°25'0 0.0
2017-Nov-03 01:30N 36°58' W 076°25'0 0.0
2017-Nov-03 01:00N 36°58' W 076°25'0 0.0
2017-Nov-03 00:30N 36°58' W 076°25'0 0.0
2017-Nov-03 00:00N 36°58' W 076°25'0 0.0
2017-Nov-02 23:30N 36°58' W 076°25'0 0.0
2017-Nov-02 23:00N 36°58' W 076°25'0 0.0
2017-Nov-02 22:30N 36°58' W 076°25'0 0.0
2017-Nov-02 22:00N 36°58' W 076°25'0 0.0
2017-Nov-02 21:27N 36°58' W 076°25'0 0.0
2017-Nov-02 21:00N 36°58' W 076°25'0 0.0
2017-Nov-02 20:30N 36°58' W 076°25'0 0.0
2017-Nov-02 20:00N 36°58' W 076°25'0 0.0
2017-Nov-02 19:27N 36°58' W 076°25'0 0.0
2017-Nov-02 19:00N 36°58' W 076°25'0 0.0
2017-Nov-02 18:30N 36°58' W 076°25'0 0.0
2017-Nov-02 18:00N 36°58' W 076°25'0 0.0
2017-Nov-02 17:30N 36°58' W 076°25'0 0.0
2017-Nov-02 16:57N 36°58' W 076°25'0 0.0
2017-Nov-02 16:30N 36°58' W 076°25'0 0.0
2017-Nov-02 16:00N 36°58' W 076°25'0 0.0
2017-Nov-02 15:27N 36°58' W 076°25'0 0.0
2017-Nov-02 14:57N 36°58' W 076°25'0 0.0
2017-Nov-02 14:24N 36°58' W 076°25'0 0.0
2017-Nov-02 14:00N 36°58' W 076°25'0 0.0
2017-Nov-02 13:30N 36°58' W 076°25'0 0.0
2017-Nov-02 13:00N 36°58' W 076°25'0 0.0
2017-Nov-02 12:30N 36°58' W 076°25'0 0.0
2017-Nov-02 12:00N 36°58' W 076°25'0 0.0
2017-Nov-02 11:30N 36°58' W 076°25'0 0.0
2017-Nov-02 11:00N 36°58' W 076°25'0 0.0
2017-Nov-02 10:30N 36°58' W 076°25'0 0.1
2017-Nov-02 10:00N 36°58' W 076°25'2 4.9
2017-Nov-02 09:30N 36°57' W 076°22'4 9.0
2017-Nov-02 09:00N 36°60' W 076°18'612.8
2017-Nov-02 08:30N 36°59' W 076°10'612.7
2017-Nov-02 08:00N 36°58' W 076°02'713.4
2017-Nov-02 07:30N 37°04' W 076°06'811.6
2017-Nov-02 06:51N 37°12' W 076°06'1 0.4
2017-Nov-02 04:30N 37°13' W 076°05'0 0.1
2017-Nov-02 04:00N 37°13' W 076°05'0 0.0
2017-Nov-02 03:15N 37°13' W 076°05'0 0.0
2017-Nov-01 22:21N 37°13' W 076°05'0 0.0
2017-Nov-01 22:00N 37°13' W 076°05'0 0.0
2017-Nov-01 21:30N 37°13' W 076°05'0 0.0
2017-Nov-01 21:00N 37°13' W 076°05'0 0.3
2017-Nov-01 20:30N 37°13' W 076°05'0 0.3
2017-Nov-01 20:00N 37°12' W 076°05'0 0.0
2017-Nov-01 19:27N 37°12' W 076°05'0 0.0
2017-Nov-01 19:00N 37°12' W 076°05'0 0.0
2017-Nov-01 18:12N 37°12' W 076°05'0 0.0
2017-Oct-31 14:27N 37°12' W 076°05'  

Dump ship's entire track history